Decoded Metar for UGKO (KOPITNARI in GEORGIA) (IATA:N/A) | Meteo·Mobile Aviation Weather
aviador You're here:

UGKO Decoded Metar

KOPITNARI in GEORGIA
Report Time2019-01-18 14:00:00
UTC Time2019-01-18 14:28:31
Flight Rules vfr VFR
Wind090° at 04 kt
W.Decomp.*RWY 08: 4.0 kt HW 0.3 kt RCW
W.Rank090° ranks 1
Current wind is below 090° avg. (10.4)
Visibility9999 m
Phenomena:N/A
Clouds:Scattered 045 Hf
Expected CloudBase > 800 ft AGL from Temp-Dew spread
CeilingNone
Temp05°C (ISA -10)
Dew Point03°C (87% RH)
AAT2.1°C
QNH1024 hPa
Density Alt-1,201 ft
Elevation223 ft
Report Wrong Elevation
Raw Report
METAR UGKO 181400Z 09004KT 9999 SCT045 05/03 Q1024 NOSIG=

Extra information for UGKO:More info

Metar Taf Metar & Taf Last 4 Metars F.Rules Stats Wind Profile Meteogram Temp Stats Airport Information Weather charts Add Link Nearby VenuesMetar ALERT Operation Metar Decoded Social comments